createdAt,value
2023-03-27T00:01:37.915Z,97967.88
2023-03-27T00:03:41.028Z,97968.94
2023-03-27T00:05:46.109Z,97967.00
2023-03-27T00:07:51.578Z,97974.09
2023-03-27T00:09:54.186Z,97967.81
2023-03-27T00:11:56.970Z,97969.38
2023-03-27T00:14:00.098Z,97971.34
2023-03-27T00:16:03.114Z,97998.78
2023-03-27T00:18:05.872Z,97990.44
2023-03-27T00:20:08.811Z,97989.66
2023-03-27T00:22:11.552Z,97978.41
2023-03-27T00:24:14.226Z,97983.56
2023-03-27T00:26:16.883Z,97979.28
2023-03-27T00:28:19.443Z,97987.53
2023-03-27T00:30:23.401Z,97982.38
2023-03-27T00:32:26.821Z,97998.41
2023-03-27T00:34:30.368Z,97984.50
2023-03-27T00:36:32.938Z,98002.66
2023-03-27T00:38:37.019Z,97998.78
2023-03-27T00:40:40.277Z,98002.66
2023-03-27T00:42:42.978Z,98005.06
2023-03-27T00:44:45.572Z,97996.47
2023-03-27T00:46:49.758Z,98000.00
2023-03-27T00:48:53.371Z,97992.13
2023-03-27T00:50:58.569Z,97993.56
2023-03-27T00:53:08.255Z,97998.16
2023-03-27T00:55:15.496Z,98004.72
2023-03-27T00:57:19.796Z,98002.59
2023-03-27T00:59:31.265Z,98009.59
2023-03-27T01:01:34.060Z,98001.69
2023-03-27T01:03:37.188Z,98003.56
2023-03-27T01:05:40.915Z,98007.78
2023-03-27T01:08:00.637Z,98009.31
2023-03-27T01:10:06.569Z,98007.63
2023-03-27T01:12:50.535Z,98005.13
2023-03-27T01:14:58.884Z,98006.19
2023-03-27T01:17:13.177Z,97997.44
2023-03-27T01:20:00.235Z,98001.25
2023-03-27T01:22:38.911Z,97989.63
2023-03-27T01:25:22.693Z,97995.84
2023-03-27T01:27:52.641Z,97998.00
2023-03-27T01:30:20.010Z,98001.81
2023-03-27T01:32:56.714Z,97998.63
2023-03-27T01:35:06.348Z,97997.63
2023-03-27T01:37:35.101Z,97996.84
2023-03-27T01:39:40.993Z,97995.00
2023-03-27T01:41:50.109Z,97991.44
2023-03-27T01:44:11.932Z,97999.31
2023-03-27T01:46:21.756Z,97998.88
2023-03-27T01:48:36.398Z,97989.06
2023-03-27T01:50:59.578Z,97984.38
2023-03-27T01:53:15.063Z,97989.84
2023-03-27T01:55:24.305Z,97993.31
2023-03-27T01:57:37.431Z,97983.59
2023-03-27T02:00:19.378Z,97977.31
2023-03-27T02:02:31.212Z,97963.06
2023-03-27T02:04:47.168Z,97957.75
2023-03-27T02:06:55.538Z,97958.47
2023-03-27T02:09:12.203Z,97952.19
2023-03-27T02:11:15.681Z,97944.78
2023-03-27T02:13:32.883Z,97938.13
2023-03-27T02:15:41.044Z,97929.50
2023-03-27T02:17:48.292Z,97930.72
2023-03-27T02:19:58.915Z,97923.31
2023-03-27T02:22:01.864Z,97925.59
2023-03-27T02:24:06.367Z,97923.63
2023-03-27T02:26:13.323Z,97924.88
2023-03-27T02:28:54.010Z,97919.41
2023-03-27T02:31:33.115Z,97918.53
2023-03-27T02:34:08.059Z,97916.13
2023-03-27T02:36:44.773Z,97914.97
2023-03-27T02:38:56.104Z,97906.41
2023-03-27T02:41:26.973Z,97912.59
2023-03-27T02:43:47.772Z,97906.69
2023-03-27T02:46:17.042Z,97908.25
2023-03-27T02:48:25.372Z,97914.19
2023-03-27T02:50:34.404Z,97911.88
2023-03-27T02:52:42.365Z,97900.13
2023-03-27T02:54:52.479Z,97899.34
2023-03-27T02:57:03.684Z,97900.94
2023-03-27T02:59:11.244Z,97895.78
2023-03-27T03:01:16.818Z,97886.44
2023-03-27T03:03:28.962Z,97880.59
2023-03-27T03:05:32.979Z,97887.31
2023-03-27T03:07:38.324Z,97881.94
2023-03-27T03:09:42.284Z,97880.78
2023-03-27T03:11:48.891Z,97874.16
2023-03-27T03:13:51.477Z,97873.88
2023-03-27T03:15:54.316Z,97872.03
2023-03-27T03:17:57.007Z,97876.09
2023-03-27T03:19:59.736Z,97876.53
2023-03-27T03:22:02.659Z,97871.03
2023-03-27T03:24:06.003Z,97863.97
2023-03-27T03:26:08.763Z,97859.63
2023-03-27T03:28:11.395Z,97855.31
2023-03-27T03:30:16.650Z,97846.31
2023-03-27T03:32:20.267Z,97855.66
2023-03-27T03:34:22.901Z,97867.06
2023-03-27T03:36:25.548Z,97867.44
2023-03-27T03:38:30.098Z,97866.28
2023-03-27T03:40:41.031Z,97863.09
2023-03-27T03:42:47.884Z,97855.75
2023-03-27T03:44:50.900Z,97857.00
2023-03-27T03:46:53.443Z,97853.47
2023-03-27T03:48:57.919Z,97853.63
2023-03-27T03:51:01.570Z,97836.47
2023-03-27T03:53:08.733Z,97840.16
2023-03-27T03:55:12.515Z,97830.41
2023-03-27T03:57:15.552Z,97826.25
2023-03-27T03:59:18.629Z,97814.22
2023-03-27T04:01:21.495Z,97794.00
2023-03-27T04:03:27.338Z,97796.50
2023-03-27T04:05:30.831Z,97792.28
2023-03-27T04:07:35.914Z,97798.22
2023-03-27T04:09:38.519Z,97800.63
2023-03-27T04:11:41.110Z,97805.22
2023-03-27T04:13:43.712Z,97798.84
2023-03-27T04:15:46.332Z,97787.88
2023-03-27T04:17:49.215Z,97789.84
2023-03-27T04:19:54.387Z,97792.59
2023-03-27T04:21:58.397Z,97799.28
2023-03-27T04:24:02.882Z,97787.19
2023-03-27T04:26:06.260Z,97786.91
2023-03-27T04:28:10.541Z,97752.38
2023-03-27T04:30:16.089Z,97754.84
2023-03-27T04:32:19.891Z,97751.03
2023-03-27T04:34:22.559Z,97760.53
2023-03-27T04:36:25.901Z,97766.03
2023-03-27T04:38:31.712Z,97779.38
2023-03-27T04:40:34.318Z,97781.25
2023-03-27T04:42:44.172Z,97784.66
2023-03-27T04:44:47.824Z,97781.47
2023-03-27T04:46:50.535Z,97775.63
2023-03-27T04:48:53.312Z,97775.34
2023-03-27T04:50:56.233Z,97773.47
2023-03-27T04:53:00.767Z,97760.22
2023-03-27T04:55:05.118Z,97743.84
2023-03-27T04:57:10.259Z,97738.53
2023-03-27T04:59:13.719Z,97736.25
2023-03-27T05:01:17.507Z,97740.00
2023-03-27T05:03:20.346Z,97734.16
2023-03-27T05:05:23.321Z,97740.22
2023-03-27T05:07:26.782Z,97733.19
2023-03-27T05:09:29.471Z,97725.38
2023-03-27T05:11:32.071Z,97728.19
2023-03-27T05:13:34.802Z,97711.81
2023-03-27T05:15:39.342Z,97715.91
2023-03-27T05:17:43.669Z,97711.72
2023-03-27T05:19:46.778Z,97713.75
2023-03-27T05:21:49.435Z,97711.13
2023-03-27T05:23:52.333Z,97711.25
2023-03-27T05:25:59.988Z,97705.41
2023-03-27T05:28:03.616Z,97701.63
2023-03-27T05:30:07.158Z,97686.81
2023-03-27T05:32:09.797Z,97680.22
2023-03-27T05:34:13.752Z,97672.81
2023-03-27T05:36:16.427Z,97673.34
2023-03-27T05:38:20.136Z,97669.91
2023-03-27T05:40:25.807Z,97666.78
2023-03-27T05:42:28.505Z,97647.56
2023-03-27T05:44:31.408Z,97640.09
2023-03-27T05:46:34.088Z,97631.41
2023-03-27T05:48:36.763Z,97628.31
2023-03-27T05:50:39.454Z,97614.13
2023-03-27T05:52:42.469Z,97621.34
2023-03-27T05:54:45.068Z,97616.72
2023-03-27T05:56:47.886Z,97623.06
2023-03-27T05:58:50.654Z,97642.81
2023-03-27T06:00:54.435Z,97638.09
2023-03-27T06:02:59.453Z,97638.94
2023-03-27T06:05:02.235Z,97644.56
2023-03-27T06:07:06.265Z,97665.13
2023-03-27T06:09:09.935Z,97670.66
2023-03-27T06:11:15.568Z,97667.09
2023-03-27T06:13:18.760Z,97676.97
2023-03-27T06:15:21.612Z,97678.97
2023-03-27T06:17:24.446Z,97684.84
2023-03-27T06:19:27.539Z,97701.75
2023-03-27T06:21:30.179Z,97702.88
2023-03-27T06:23:32.926Z,97720.59
2023-03-27T06:25:39.338Z,97737.50
2023-03-27T06:27:43.632Z,97736.66
2023-03-27T06:29:47.106Z,97730.28
2023-03-27T06:31:49.835Z,97730.97
2023-03-27T06:33:52.711Z,97732.44
2023-03-27T06:36:00.810Z,97725.41
2023-03-27T06:38:04.123Z,97732.53
2023-03-27T06:40:10.584Z,97743.19
2023-03-27T06:42:13.224Z,97748.75
2023-03-27T06:44:16.231Z,97742.47
2023-03-27T06:46:19.107Z,97743.69
2023-03-27T06:48:22.718Z,97731.19
2023-03-27T06:50:27.590Z,97734.66
2023-03-27T06:52:30.286Z,97743.59
2023-03-27T06:54:32.894Z,97734.44
2023-03-27T06:56:35.632Z,97734.06
2023-03-27T06:58:38.263Z,97732.03
2023-03-27T07:00:41.833Z,97731.59
2023-03-27T07:02:44.534Z,97733.56
2023-03-27T07:04:54.406Z,97728.38
2023-03-27T07:07:00.816Z,97723.22
2023-03-27T07:09:03.725Z,97708.38
2023-03-27T07:11:11.967Z,97709.72
2023-03-27T07:13:16.787Z,97703.53
2023-03-27T07:15:20.432Z,97684.41
2023-03-27T07:17:23.107Z,97690.47
2023-03-27T07:19:25.706Z,97694.19
2023-03-27T07:21:28.442Z,97684.50
2023-03-27T07:23:31.566Z,97677.16
2023-03-27T07:25:38.268Z,97682.00
2023-03-27T07:27:41.853Z,97682.00
2023-03-27T07:29:44.490Z,97671.81
2023-03-27T07:31:56.897Z,97670.22
2023-03-27T07:34:03.317Z,97661.91
2023-03-27T07:36:08.086Z,97667.00
2023-03-27T07:38:10.885Z,97667.00
2023-03-27T07:40:13.571Z,97660.28
2023-03-27T07:42:16.223Z,97658.00
2023-03-27T07:44:19.880Z,97657.22
2023-03-27T07:46:24.809Z,97645.13
2023-03-27T07:48:29.085Z,97643.28
2023-03-27T07:50:31.783Z,97635.06
2023-03-27T07:52:36.738Z,97621.31
2023-03-27T07:54:39.347Z,97614.25
2023-03-27T07:56:42.228Z,97607.56
2023-03-27T07:58:45.040Z,97613.09
2023-03-27T08:00:53.218Z,97604.44
2023-03-27T08:03:06.233Z,97601.28
2023-03-27T08:05:10.278Z,97598.50
2023-03-27T08:07:13.074Z,97592.59
2023-03-27T08:09:16.166Z,97596.91
2023-03-27T08:11:30.324Z,97587.84
2023-03-27T08:13:33.338Z,97589.81
2023-03-27T08:15:35.944Z,97585.88
2023-03-27T08:17:38.693Z,97587.03
2023-03-27T08:19:41.810Z,97589.75
2023-03-27T08:21:47.784Z,97581.06
2023-03-27T08:23:51.510Z,97577.47
2023-03-27T08:25:55.174Z,97569.19
2023-03-27T08:27:58.136Z,97566.06
2023-03-27T08:30:01.618Z,97569.25
2023-03-27T08:32:08.608Z,97567.28
2023-03-27T08:34:11.732Z,97563.69
2023-03-27T08:36:20.204Z,97564.50
2023-03-27T08:38:26.988Z,97569.22
2023-03-27T08:40:34.192Z,97564.91
2023-03-27T08:42:43.046Z,97566.47
2023-03-27T08:44:45.850Z,97555.03
2023-03-27T08:46:56.235Z,97571.66
2023-03-27T08:49:29.780Z,97572.03
2023-03-27T08:51:38.725Z,97570.81
2023-03-27T08:54:08.126Z,97555.06
2023-03-27T08:56:15.824Z,97553.50
2023-03-27T08:58:21.021Z,97550.75
2023-03-27T09:00:32.051Z,97555.91
2023-03-27T09:02:53.546Z,97544.84
2023-03-27T09:05:10.146Z,97527.88
2023-03-27T09:07:34.575Z,97544.03
2023-03-27T09:09:59.606Z,97539.69
2023-03-27T09:12:31.311Z,97542.06
2023-03-27T09:14:39.164Z,97538.09
2023-03-27T09:16:50.364Z,97524.31
2023-03-27T09:18:59.012Z,97518.44
2023-03-27T09:21:21.942Z,97516.06
2023-03-27T09:23:38.366Z,97509.72
2023-03-27T09:25:47.668Z,97501.06
2023-03-27T09:27:52.563Z,97501.09
2023-03-27T09:30:16.338Z,97499.50
2023-03-27T09:32:19.263Z,97493.19
2023-03-27T09:34:32.741Z,97497.13
2023-03-27T09:36:38.924Z,97494.75
2023-03-27T09:38:44.802Z,97488.44
2023-03-27T09:41:08.447Z,97505.00
2023-03-27T09:43:26.552Z,97495.94
2023-03-27T09:45:29.308Z,97493.59
2023-03-27T09:47:44.275Z,97490.41
2023-03-27T09:49:56.790Z,97493.16
2023-03-27T09:52:00.486Z,97495.50
2023-03-27T09:54:03.841Z,97507.75
2023-03-27T09:56:13.311Z,97519.19
2023-03-27T09:58:32.176Z,97512.06
2023-03-27T10:00:35.573Z,97520.34
2023-03-27T10:02:38.572Z,97515.94
2023-03-27T10:05:17.038Z,97523.38
2023-03-27T10:07:27.117Z,97523.69
2023-03-27T10:09:34.504Z,97533.88
2023-03-27T10:11:37.241Z,97527.13
2023-03-27T10:13:45.337Z,97517.66
2023-03-27T10:15:48.160Z,97509.31
2023-03-27T10:17:51.114Z,97504.16
2023-03-27T10:20:00.647Z,97514.38
2023-03-27T10:22:31.756Z,97514.84
2023-03-27T10:24:44.144Z,97504.22
2023-03-27T10:26:52.687Z,97500.75
2023-03-27T10:29:01.881Z,97503.91
2023-03-27T10:31:11.255Z,97497.25
2023-03-27T10:33:14.350Z,97505.91
2023-03-27T10:35:38.036Z,97514.25
2023-03-27T10:37:41.847Z,97514.28
2023-03-27T10:39:55.287Z,97511.16
2023-03-27T10:42:02.105Z,97524.56
2023-03-27T10:44:17.973Z,97517.03
2023-03-27T10:46:23.483Z,97514.25
2023-03-27T10:48:41.160Z,97523.28
2023-03-27T10:50:54.500Z,97522.81
2023-03-27T10:53:18.406Z,97525.53
2023-03-27T10:55:44.826Z,97537.75
2023-03-27T10:57:54.650Z,97551.53
2023-03-27T11:00:41.751Z,97544.41
2023-03-27T11:02:57.750Z,97534.94
2023-03-27T11:05:11.487Z,97546.00
2023-03-27T11:07:33.917Z,97536.22
2023-03-27T11:09:46.628Z,97540.94
2023-03-27T11:11:58.524Z,97532.72
2023-03-27T11:14:05.972Z,97526.41
2023-03-27T11:16:29.659Z,97527.94
2023-03-27T11:18:39.371Z,97528.75
2023-03-27T11:20:59.998Z,97520.97
2023-03-27T11:23:18.691Z,97526.84
2023-03-27T11:25:38.594Z,97524.88
2023-03-27T11:27:51.829Z,97524.97
2023-03-27T11:30:10.450Z,97521.81
2023-03-27T11:32:28.510Z,97527.75
2023-03-27T11:34:36.700Z,97535.25
2023-03-27T11:36:51.612Z,97533.66
2023-03-27T11:39:29.180Z,97536.81
2023-03-27T11:41:31.943Z,97551.38
2023-03-27T11:43:38.765Z,97537.19
2023-03-27T11:45:57.258Z,97538.72
2023-03-27T11:48:12.333Z,97540.63
2023-03-27T11:50:29.768Z,97537.06
2023-03-27T11:52:44.319Z,97540.16
2023-03-27T11:55:06.813Z,97547.63
2023-03-27T11:57:55.853Z,97556.66
2023-03-27T12:00:05.288Z,97556.28
2023-03-27T12:02:40.762Z,97554.34
2023-03-27T12:04:53.210Z,97550.41
2023-03-27T12:07:09.816Z,97556.78
2023-03-27T12:09:25.499Z,97555.97
2023-03-27T12:11:37.449Z,97557.16
2023-03-27T12:13:58.289Z,97547.66
2023-03-27T12:16:27.520Z,97563.81
2023-03-27T12:18:51.184Z,97557.06
2023-03-27T12:21:17.894Z,97557.84
2023-03-27T12:23:42.664Z,97560.97
2023-03-27T12:26:09.421Z,97561.34
2023-03-27T12:28:23.700Z,97561.72
2023-03-27T12:30:32.571Z,97566.38
2023-03-27T12:32:48.965Z,97560.78
2023-03-27T12:35:24.627Z,97566.28
2023-03-27T12:37:34.773Z,97561.88
2023-03-27T12:39:57.352Z,97563.00
2023-03-27T12:42:00.032Z,97564.09
2023-03-27T12:44:06.470Z,97564.75
2023-03-27T12:46:23.959Z,97565.41
2023-03-27T12:48:27.370Z,97564.22
2023-03-27T12:50:35.213Z,97564.16
2023-03-27T12:52:38.674Z,97568.41
2023-03-27T12:55:01.783Z,97560.03
2023-03-27T12:57:25.114Z,97567.00
2023-03-27T12:59:29.855Z,97569.25
2023-03-27T13:01:54.904Z,97570.75
2023-03-27T13:04:40.621Z,97574.63
2023-03-27T13:06:56.149Z,97576.13
2023-03-27T13:09:28.554Z,97582.06
2023-03-27T13:11:34.037Z,97583.09
2023-03-27T13:13:45.521Z,97593.25
2023-03-27T13:16:19.377Z,97590.44
2023-03-27T13:18:45.946Z,97590.34
2023-03-27T13:21:09.435Z,97590.25
2023-03-27T13:23:34.978Z,97595.22
2023-03-27T13:26:03.639Z,97592.78
2023-03-27T13:28:31.942Z,97599.03
2023-03-27T13:30:50.724Z,97599.38
2023-03-27T13:33:31.751Z,97608.31
2023-03-27T13:35:41.552Z,97615.34
2023-03-27T13:37:51.246Z,97608.72
2023-03-27T13:40:07.586Z,97605.97
2023-03-27T13:42:22.496Z,97608.41
2023-03-27T13:44:30.569Z,97605.28
2023-03-27T13:46:35.692Z,97608.06
2023-03-27T13:48:38.489Z,97602.63
2023-03-27T13:50:54.545Z,97604.28
2023-03-27T13:53:15.567Z,97604.28
2023-03-27T13:55:29.088Z,97602.31
2023-03-27T13:57:56.265Z,97606.59
2023-03-27T14:00:08.562Z,97605.00
2023-03-27T14:02:29.667Z,97603.78
2023-03-27T14:05:09.792Z,97612.88
2023-03-27T14:07:39.658Z,97615.56
2023-03-27T14:09:42.222Z,97617.94
2023-03-27T14:11:47.555Z,97610.47
2023-03-27T14:14:07.314Z,97617.50
2023-03-27T14:16:31.731Z,97616.53
2023-03-27T14:18:56.269Z,97606.75
2023-03-27T14:21:06.359Z,97595.66
2023-03-27T14:23:26.635Z,97613.78
2023-03-27T14:25:36.878Z,97613.81
2023-03-27T14:27:42.590Z,97605.19
2023-03-27T14:29:45.317Z,97603.84
2023-03-27T14:31:49.443Z,97614.03
2023-03-27T14:33:58.204Z,97617.84
2023-03-27T14:36:05.732Z,97613.06
2023-03-27T14:38:33.428Z,97608.16
2023-03-27T14:40:41.841Z,97612.41
2023-03-27T14:42:52.833Z,97616.69
2023-03-27T14:45:23.229Z,97621.09
2023-03-27T14:47:26.167Z,97605.66
2023-03-27T14:49:37.711Z,97621.03
2023-03-27T14:51:42.273Z,97620.19
2023-03-27T14:53:49.707Z,97627.13
2023-03-27T14:55:55.497Z,97623.88
2023-03-27T14:58:11.036Z,97635.50
2023-03-27T15:00:17.705Z,97629.09
2023-03-27T15:02:30.737Z,97634.91
2023-03-27T15:04:34.609Z,97640.69
2023-03-27T15:06:37.832Z,97625.59
2023-03-27T15:08:46.735Z,97627.94
2023-03-27T15:10:53.549Z,97637.66
2023-03-27T15:12:56.642Z,97650.81
2023-03-27T15:14:59.997Z,97642.06
2023-03-27T15:17:15.760Z,97647.06
2023-03-27T15:19:23.927Z,97652.03
2023-03-27T15:21:39.277Z,97661.34
2023-03-27T15:23:51.144Z,97662.00
2023-03-27T15:25:57.509Z,97661.13
2023-03-27T15:28:06.707Z,97667.34
2023-03-27T15:30:38.105Z,97673.22
2023-03-27T15:32:50.993Z,97666.53
2023-03-27T15:34:58.244Z,97672.09
2023-03-27T15:37:06.271Z,97668.63
2023-03-27T15:39:20.672Z,97676.13
2023-03-27T15:41:35.258Z,97685.66
2023-03-27T15:43:38.095Z,97684.59
2023-03-27T15:45:57.715Z,97690.94
2023-03-27T15:48:03.079Z,97698.44
2023-03-27T15:50:28.167Z,97703.56
2023-03-27T15:52:34.104Z,97706.03
2023-03-27T15:54:36.941Z,97714.69
2023-03-27T15:56:44.235Z,97708.47
2023-03-27T15:58:58.543Z,97710.44
2023-03-27T16:01:18.868Z,97714.16
2023-03-27T16:03:25.430Z,97722.91
2023-03-27T16:05:28.395Z,97724.16
2023-03-27T16:07:47.323Z,97722.97
2023-03-27T16:09:52.678Z,97730.50
2023-03-27T16:11:57.808Z,97726.25
2023-03-27T16:14:00.683Z,97732.09
2023-03-27T16:16:21.633Z,97734.09
2023-03-27T16:18:32.108Z,97733.31
2023-03-27T16:20:39.157Z,97733.31
2023-03-27T16:22:41.794Z,97728.59
2023-03-27T16:24:44.504Z,97731.44
2023-03-27T16:26:47.509Z,97725.44
2023-03-27T16:28:50.336Z,97730.72
2023-03-27T16:30:53.046Z,97729.06
2023-03-27T16:32:56.312Z,97738.50
2023-03-27T16:34:59.064Z,97728.84
2023-03-27T16:37:01.764Z,97735.19
2023-03-27T16:39:05.047Z,97736.00
2023-03-27T16:41:12.203Z,97741.09
2023-03-27T16:43:15.172Z,97739.97
2023-03-27T16:45:17.940Z,97745.44
2023-03-27T16:47:23.182Z,97745.44
2023-03-27T16:49:26.522Z,97763.47
2023-03-27T16:51:29.503Z,97765.09
2023-03-27T16:53:32.110Z,97766.66
2023-03-27T16:55:34.712Z,97780.03
2023-03-27T16:57:37.333Z,97786.22
2023-03-27T16:59:40.864Z,97777.06
2023-03-27T17:01:43.738Z,97772.97
2023-03-27T17:03:46.619Z,97782.22
2023-03-27T17:05:49.547Z,97782.06
2023-03-27T17:07:52.603Z,97786.66
2023-03-27T17:09:55.624Z,97788.19
2023-03-27T17:11:58.571Z,97790.84
2023-03-27T17:14:01.418Z,97805.69
2023-03-27T17:16:05.220Z,97793.84
2023-03-27T17:18:07.990Z,97805.97
2023-03-27T17:20:11.152Z,97797.06
2023-03-27T17:22:14.223Z,97797.41
2023-03-27T17:24:19.976Z,97800.50
2023-03-27T17:26:34.812Z,97817.16
2023-03-27T17:28:37.967Z,97815.53
2023-03-27T17:30:56.783Z,97820.56
2023-03-27T17:33:06.392Z,97826.44
2023-03-27T17:35:09.531Z,97840.66
2023-03-27T17:37:12.792Z,97832.69
2023-03-27T17:39:15.516Z,97848.06
2023-03-27T17:41:18.761Z,97849.66
2023-03-27T17:43:21.424Z,97850.03
2023-03-27T17:45:24.081Z,97859.13
2023-03-27T17:47:26.765Z,97851.16
2023-03-27T17:49:30.035Z,97867.94
2023-03-27T17:51:34.337Z,97862.03
2023-03-27T17:53:38.965Z,97860.00
2023-03-27T17:55:41.717Z,97864.59
2023-03-27T17:57:47.448Z,97869.53
2023-03-27T17:59:53.693Z,97864.31
2023-03-27T18:01:56.784Z,97859.09
2023-03-27T18:04:00.802Z,97858.72
2023-03-27T18:06:04.276Z,97865.72
2023-03-27T18:08:08.739Z,97865.25
2023-03-27T18:10:17.368Z,97868.69
2023-03-27T18:12:19.959Z,97865.88
2023-03-27T18:14:22.748Z,97872.16
2023-03-27T18:16:25.400Z,97872.88
2023-03-27T18:18:28.017Z,97869.66
2023-03-27T18:20:30.695Z,97866.75
2023-03-27T18:22:33.245Z,97868.56
2023-03-27T18:24:35.860Z,97870.88
2023-03-27T18:26:38.598Z,97872.81
2023-03-27T18:28:42.835Z,97872.25
2023-03-27T18:30:46.625Z,97872.69
2023-03-27T18:32:49.428Z,97874.31
2023-03-27T18:34:52.130Z,97874.19
2023-03-27T18:36:54.820Z,97875.69
2023-03-27T18:38:57.508Z,97875.94
2023-03-27T18:41:00.314Z,97877.78
2023-03-27T18:43:03.222Z,97881.44
2023-03-27T18:45:08.158Z,97884.06
2023-03-27T18:47:11.277Z,97885.78
2023-03-27T18:49:24.367Z,97900.19
2023-03-27T18:51:28.180Z,97918.66
2023-03-27T18:53:31.592Z,97896.78
2023-03-27T18:55:34.270Z,97899.72
2023-03-27T18:57:38.396Z,97888.22
2023-03-27T18:59:41.220Z,97901.13
2023-03-27T19:01:44.227Z,97881.78
2023-03-27T19:03:46.874Z,97909.81
2023-03-27T19:05:51.403Z,97909.56
2023-03-27T19:07:57.810Z,97907.88
2023-03-27T19:10:00.435Z,97899.00
2023-03-27T19:12:03.716Z,97907.06
2023-03-27T19:14:06.403Z,97914.34
2023-03-27T19:16:14.287Z,97912.75
2023-03-27T19:18:18.992Z,97926.19
2023-03-27T19:20:22.130Z,97924.94
2023-03-27T19:22:24.768Z,97923.69
2023-03-27T19:24:27.511Z,97933.38
2023-03-27T19:26:33.646Z,97928.78
2023-03-27T19:28:37.477Z,97938.94
2023-03-27T19:30:40.527Z,97931.41
2023-03-27T19:32:43.563Z,97949.25
2023-03-27T19:34:46.221Z,97951.88
2023-03-27T19:36:51.026Z,97943.91
2023-03-27T19:38:54.945Z,97940.72
2023-03-27T19:40:57.958Z,97950.38
2023-03-27T19:43:00.948Z,97958.81
2023-03-27T19:45:03.953Z,97963.78
2023-03-27T19:47:07.822Z,97957.06
2023-03-27T19:49:10.948Z,97959.56
2023-03-27T19:51:13.909Z,97973.53
2023-03-27T19:53:17.265Z,97985.47
2023-03-27T19:55:24.172Z,97976.00
2023-03-27T19:57:26.934Z,97972.50
2023-03-27T19:59:31.100Z,97985.69
2023-03-27T20:01:37.808Z,97983.63
2023-03-27T20:03:40.791Z,97973.25
2023-03-27T20:05:48.677Z,97990.25
2023-03-27T20:07:51.780Z,98008.94
2023-03-27T20:09:54.464Z,97995.47
2023-03-27T20:11:57.157Z,98005.78
2023-03-27T20:14:00.110Z,97992.81
2023-03-27T20:16:05.087Z,97990.41
2023-03-27T20:18:08.306Z,98003.47
2023-03-27T20:20:11.706Z,97995.13
2023-03-27T20:22:17.704Z,98007.03
2023-03-27T20:24:20.623Z,97999.66
2023-03-27T20:26:24.518Z,98011.81
2023-03-27T20:28:27.658Z,98030.13
2023-03-27T20:30:31.263Z,98023.09
2023-03-27T20:32:33.926Z,98016.84
2023-03-27T20:34:38.549Z,98020.56
2023-03-27T20:36:43.588Z,98030.66
2023-03-27T20:38:46.642Z,98038.19
2023-03-27T20:40:54.000Z,98035.47
2023-03-27T20:43:04.299Z,98039.13
2023-03-27T20:45:07.585Z,98030.28
2023-03-27T20:47:13.486Z,98038.78
2023-03-27T20:51:34.030Z,98045.03
2023-03-27T20:53:40.164Z,98048.59
2023-03-27T20:55:56.972Z,98045.03
2023-03-27T20:58:03.065Z,98048.59
2023-03-27T21:00:11.385Z,98048.44
2023-03-27T21:02:19.141Z,98046.50
2023-03-27T21:04:21.889Z,98044.56
2023-03-27T21:06:25.936Z,98058.22
2023-03-27T21:08:31.640Z,98042.72
2023-03-27T21:10:34.721Z,98057.94
2023-03-27T21:12:39.268Z,98064.72
2023-03-27T21:14:43.135Z,98069.03
2023-03-27T21:16:46.018Z,98067.94
2023-03-27T21:18:48.624Z,98078.84
2023-03-27T21:20:51.975Z,98066.66
2023-03-27T21:22:54.813Z,98060.72
2023-03-27T21:24:57.509Z,98065.38
2023-03-27T21:27:00.321Z,98071.50
2023-03-27T21:29:03.590Z,98067.00
2023-03-27T21:31:08.354Z,98063.81
2023-03-27T21:33:11.524Z,98073.31
2023-03-27T21:35:14.366Z,98081.16
2023-03-27T21:37:17.163Z,98082.44
2023-03-27T21:39:19.943Z,98089.34
2023-03-27T21:41:22.614Z,98090.97
2023-03-27T21:43:26.103Z,98087.75
2023-03-27T21:45:28.817Z,98084.22
2023-03-27T21:47:44.645Z,98080.25
2023-03-27T21:49:50.004Z,98082.97
2023-03-27T21:51:52.659Z,98080.69
2023-03-27T21:53:55.553Z,98086.13
2023-03-27T21:55:58.551Z,98096.91
2023-03-27T21:58:01.414Z,98083.94
2023-03-27T22:00:05.876Z,98080.41
2023-03-27T22:02:08.498Z,98092.75
2023-03-27T22:04:11.755Z,98080.28
2023-03-27T22:06:14.721Z,98102.06
2023-03-27T22:08:18.245Z,98091.50
2023-03-27T22:10:21.130Z,98096.94
2023-03-27T22:12:23.717Z,98096.94
2023-03-27T22:14:26.839Z,98105.13
2023-03-27T22:16:30.069Z,98104.50
2023-03-27T22:18:32.682Z,98095.66
2023-03-27T22:20:35.465Z,98105.16
2023-03-27T22:22:38.209Z,98102.72
2023-03-27T22:24:41.092Z,98102.25
2023-03-27T22:26:43.727Z,98117.03
2023-03-27T22:28:46.819Z,98115.88
2023-03-27T22:30:51.233Z,98110.91
2023-03-27T22:32:55.150Z,98115.25
2023-03-27T22:34:57.962Z,98113.34
2023-03-27T22:37:02.965Z,98121.81
2023-03-27T22:39:06.420Z,98125.38
2023-03-27T22:41:11.724Z,98137.88
2023-03-27T22:43:22.991Z,98126.63
2023-03-27T22:45:26.276Z,98131.28
2023-03-27T22:47:31.274Z,98140.28
2023-03-27T22:49:36.174Z,98144.63
2023-03-27T22:51:38.900Z,98133.72
2023-03-27T22:53:41.978Z,98135.59
2023-03-27T22:55:51.255Z,98136.28
2023-03-27T22:57:53.836Z,98136.56
2023-03-27T22:59:56.643Z,98138.00
2023-03-27T23:01:59.601Z,98135.94
2023-03-27T23:04:02.534Z,98144.44
2023-03-27T23:06:05.614Z,98142.34
2023-03-27T23:08:08.846Z,98148.94
2023-03-27T23:10:11.522Z,98151.19
2023-03-27T23:12:14.756Z,98148.78
2023-03-27T23:14:17.459Z,98139.34
2023-03-27T23:16:20.134Z,98151.38
2023-03-27T23:18:26.171Z,98158.28
2023-03-27T23:20:29.781Z,98152.97
2023-03-27T23:22:32.360Z,98157.13
2023-03-27T23:24:35.010Z,98167.56
2023-03-27T23:26:37.743Z,98165.97
2023-03-27T23:28:42.428Z,98161.66
2023-03-27T23:30:59.591Z,98163.06
2023-03-27T23:33:02.623Z,98163.72
2023-03-27T23:35:07.745Z,98172.84
2023-03-27T23:37:10.735Z,98170.44
2023-03-27T23:39:13.481Z,98158.75
2023-03-27T23:41:16.787Z,98166.28
2023-03-27T23:43:19.499Z,98172.22
2023-03-27T23:45:22.092Z,98161.66
2023-03-27T23:47:24.763Z,98176.06
2023-03-27T23:49:27.472Z,98173.34
2023-03-27T23:51:30.079Z,98172.53
2023-03-27T23:53:33.049Z,98172.19
2023-03-27T23:55:35.966Z,98178.00
2023-03-27T23:57:38.626Z,98181.03
2023-03-27T23:59:41.633Z,98173.81
